Terminal Aerodrome Forecast
Issued by NWS

Home | Current Version | Previous Version | Text Only | Print | Product List | Glossary On
Versions: 1 2 3 4 5 6 7 8 9 10 11 12 13 14 15 16 17 18 19 20 21
094
FTUS41 KBGM 280540
TAFELM
TAF
KELM 280540Z 2806/2906 00000KT 6SM BR BKN060
     FM280800 00000KT 4SM BR SCT060
     FM280900 00000KT 2SM BR SCT003
      TEMPO 2809/2812 1/2SM FG OVC003
     FM281300 16008KT P6SM BKN050
     FM290200 17007KT P6SM -SHRA OVC025=

USA.gov is the U.S. government's official web portal to all federal, state and local government web resources and services.